Accueil
METAR-TAF:

METAR-TAF

Aéroports :

Conakry, Guinée

Aéroport international de Conakry

latitude: 09-34N, longitude: 013-37W, altitude: 26 m

Observation

Le bulletin a été fait il y a 39 minutes, à 09:00 UTC
Vent calme
Température 24°C
Humidité 83%
Pression 1012 hPa
Visibilité: 2000 m
brume

METAR: GUCY 240900Z 00000KT 2000 BR NSC 24/21 Q1012 NOSIG

Heure: 09:39 (09:39 UTC)

Prévision

Le bulletin a été fait il y a 4 heures et 39 minutes, à 05:00 UTC
Prévision valable du 24 à 06 UTC au 25 à 12 UTC
Vent 6 kt de ouest/nord-ouest
Visibilité: 5000 m
brume sèche
Temporairement
entre VR et B0 UTC
Visibilité: 2000 m
Quelques nuages à une hauteur de 1500 ft
brume
Evoluant progressivement
du 24 à 14 UTC au 24 à 18 UTC
Vent 4 kt de sud-ouest
Visibilité: 4000 m
brume sèche

TAF: GUCY 240500Z 2406/2512 30006KT 5000 HZ NSC TEMPO VRB02KT 2000 BR FEW015 BECMG 2414/2418 22004KT 4000 HZ NSC

Observations et prévisions météorologiques de plus de 4000 aéroports (messages METAR et TAF).

Les stations disponibles sont représentées par des disques jaunes et rouges sur la carte.

Passer la souris dessus pour voir le nom de la station.

Cliquer dessus pour voir les observations et prévisions météorologiques.

Pour changer de carte: cliquez sur les boutons verts avec une croix noire pour zoomer, sur le bouton vert avec un tiret pour effectuer un zoom arrière, ou sur les flèches vertes pour les cartes adjacentes.


METAR-TAF: